createdAt,value
2022-10-12T00:00:07.044Z,84.19
2022-10-12T00:02:50.947Z,84.41
2022-10-12T00:05:18.440Z,84.69
2022-10-12T00:07:45.758Z,84.20
2022-10-12T00:10:13.302Z,84.42
2022-10-12T00:12:40.650Z,84.63
2022-10-12T00:15:08.534Z,84.39
2022-10-12T00:17:36.500Z,83.87
2022-10-12T00:20:05.319Z,84.31
2022-10-12T00:22:32.876Z,84.88
2022-10-12T00:25:00.245Z,84.81
2022-10-12T00:27:27.587Z,85.42
2022-10-12T00:29:54.973Z,84.65
2022-10-12T00:32:22.575Z,84.94
2022-10-12T00:34:50.016Z,85.48
2022-10-12T00:37:17.388Z,85.35
2022-10-12T00:39:44.933Z,84.96
2022-10-12T00:42:13.263Z,85.66
2022-10-12T00:50:35.934Z,86.46
2022-10-12T00:53:10.135Z,85.80
2022-10-12T00:55:41.312Z,85.28
2022-10-12T00:58:09.700Z,86.47
2022-10-12T01:00:39.024Z,86.25
2022-10-12T01:03:10.048Z,85.76
2022-10-12T01:05:40.856Z,85.49
2022-10-12T01:08:08.231Z,85.85
2022-10-12T01:10:35.650Z,86.05
2022-10-12T01:13:03.935Z,85.43
2022-10-12T01:15:39.898Z,86.38
2022-10-12T01:24:09.742Z,85.60
2022-10-12T01:29:53.653Z,85.39
2022-10-12T01:32:27.140Z,85.64
2022-10-12T01:40:29.740Z,86.00
2022-10-12T01:42:58.908Z,85.99
2022-10-12T01:45:26.447Z,86.07
2022-10-12T01:47:55.591Z,85.42
2022-10-12T01:50:28.300Z,85.75
2022-10-12T02:01:26.736Z,85.94
2022-10-12T02:04:24.194Z,85.59
2022-10-12T02:07:00.139Z,85.86
2022-10-12T02:09:30.314Z,85.31
2022-10-12T02:12:06.266Z,86.00
2022-10-12T02:14:41.035Z,85.66
2022-10-12T02:17:13.383Z,86.52
2022-10-12T02:19:46.328Z,85.68
2022-10-12T02:22:15.870Z,85.21
2022-10-12T02:24:46.866Z,85.13
2022-10-12T02:27:16.190Z,84.85
2022-10-12T02:29:47.193Z,84.94
2022-10-12T02:35:03.090Z,86.13
2022-10-12T02:40:22.121Z,86.01
2022-10-12T02:43:11.324Z,86.08
2022-10-12T02:45:42.010Z,85.84
2022-10-12T02:48:14.133Z,85.79
2022-10-12T02:50:41.430Z,85.93
2022-10-12T02:53:09.301Z,86.22
2022-10-12T02:55:48.888Z,86.27
2022-10-12T02:58:17.219Z,85.42
2022-10-12T03:00:44.652Z,86.66
2022-10-12T03:03:12.127Z,85.95
2022-10-12T03:05:39.712Z,86.28
2022-10-12T03:08:07.178Z,86.32
2022-10-12T03:10:35.146Z,86.41
2022-10-12T03:13:02.792Z,86.25
2022-10-12T03:15:31.005Z,86.93
2022-10-12T03:17:58.840Z,85.79
2022-10-12T03:20:26.494Z,86.32
2022-10-12T03:22:53.957Z,85.35
2022-10-12T03:25:21.430Z,86.08
2022-10-12T03:27:48.845Z,86.25
2022-10-12T03:30:16.570Z,85.96
2022-10-12T03:32:44.117Z,85.93
2022-10-12T03:35:11.652Z,86.35
2022-10-12T03:37:39.555Z,86.25
2022-10-12T03:40:08.499Z,86.40
2022-10-12T03:42:35.929Z,85.65
2022-10-12T03:45:03.592Z,84.71
2022-10-12T03:47:31.238Z,86.25
2022-10-12T03:49:58.701Z,85.90
2022-10-12T03:52:26.418Z,85.80
2022-10-12T03:54:54.250Z,85.73
2022-10-12T03:57:22.108Z,86.61
2022-10-12T03:59:50.396Z,86.76
2022-10-12T04:02:18.249Z,86.26
2022-10-12T04:04:45.644Z,85.84
2022-10-12T04:07:13.246Z,86.51
2022-10-12T04:09:40.864Z,86.64
2022-10-12T04:12:08.483Z,85.68
2022-10-12T04:14:35.977Z,86.18
2022-10-12T04:17:04.499Z,86.25
2022-10-12T04:19:32.180Z,85.87
2022-10-12T04:21:59.725Z,86.05
2022-10-12T04:24:27.663Z,87.08
2022-10-12T04:26:55.224Z,86.54
2022-10-12T04:29:23.174Z,86.60
2022-10-12T04:31:50.743Z,85.97
2022-10-12T04:34:18.636Z,85.68
2022-10-12T04:36:46.464Z,86.86
2022-10-12T04:39:14.008Z,87.25
2022-10-12T04:41:41.475Z,87.11
2022-10-12T04:44:09.150Z,86.66
2022-10-12T04:46:36.580Z,86.94
2022-10-12T04:49:04.089Z,86.95
2022-10-12T04:51:31.639Z,86.65
2022-10-12T04:53:59.106Z,86.48
2022-10-12T04:56:27.074Z,86.80
2022-10-12T04:58:54.541Z,87.09
2022-10-12T05:01:22.257Z,87.99
2022-10-12T05:03:50.048Z,86.98
2022-10-12T05:06:17.531Z,87.30
2022-10-12T05:08:49.835Z,87.31
2022-10-12T05:11:17.650Z,88.43
2022-10-12T05:13:45.247Z,88.12
2022-10-12T05:16:12.784Z,88.22
2022-10-12T05:18:40.451Z,86.92
2022-10-12T05:21:08.113Z,87.49
2022-10-12T05:23:35.628Z,87.42
2022-10-12T05:26:03.319Z,87.29
2022-10-12T05:28:30.966Z,87.87
2022-10-12T05:30:58.506Z,88.15
2022-10-12T05:33:26.139Z,87.86
2022-10-12T05:35:56.497Z,88.15
2022-10-12T05:38:24.453Z,88.79
2022-10-12T05:40:54.370Z,87.98
2022-10-12T05:43:25.375Z,89.51
2022-10-12T05:45:53.099Z,89.01
2022-10-12T05:48:20.844Z,89.77
2022-10-12T05:50:48.462Z,89.41
2022-10-12T05:53:16.162Z,89.82
2022-10-12T05:55:57.018Z,90.11
2022-10-12T05:58:25.866Z,90.68
2022-10-12T06:00:54.214Z,91.10
2022-10-12T06:03:26.043Z,90.50
2022-10-12T06:05:54.488Z,89.96
2022-10-12T06:08:22.142Z,89.69
2022-10-12T06:10:51.777Z,89.95
2022-10-12T06:13:20.195Z,89.53
2022-10-12T06:15:49.358Z,88.84
2022-10-12T06:18:18.642Z,89.21
2022-10-12T06:20:49.381Z,89.92
2022-10-12T06:23:17.993Z,90.03
2022-10-12T06:25:48.388Z,89.94
2022-10-12T06:28:17.471Z,88.61
2022-10-12T06:30:45.143Z,88.34
2022-10-12T06:33:12.736Z,88.25
2022-10-12T06:35:40.497Z,87.91
2022-10-12T06:38:08.067Z,88.80
2022-10-12T06:40:35.833Z,88.14
2022-10-12T06:43:03.582Z,88.40
2022-10-12T06:45:32.191Z,87.88
2022-10-12T06:48:00.741Z,87.52
2022-10-12T06:50:28.660Z,87.83
2022-10-12T06:52:57.156Z,87.45
2022-10-12T06:55:24.727Z,88.20
2022-10-12T06:57:52.235Z,88.11
2022-10-12T07:00:19.811Z,87.48
2022-10-12T07:02:50.390Z,87.76
2022-10-12T07:05:18.727Z,87.69
2022-10-12T07:07:46.318Z,86.98
2022-10-12T07:10:13.921Z,86.72
2022-10-12T07:12:41.540Z,86.50
2022-10-12T07:15:09.544Z,85.02
2022-10-12T07:17:37.378Z,83.99
2022-10-12T07:20:06.019Z,84.33
2022-10-12T07:22:33.773Z,83.71
2022-10-12T07:25:01.237Z,84.29
2022-10-12T07:27:30.430Z,83.41
2022-10-12T07:29:57.858Z,82.98
2022-10-12T07:32:25.573Z,83.38
2022-10-12T07:34:53.128Z,84.20
2022-10-12T07:37:20.580Z,83.80
2022-10-12T07:39:48.119Z,83.39
2022-10-12T07:42:19.244Z,82.89
2022-10-12T07:44:47.289Z,83.23
2022-10-12T07:47:16.752Z,82.65
2022-10-12T07:49:44.388Z,82.21
2022-10-12T07:52:11.821Z,81.40
2022-10-12T07:54:39.228Z,81.83
2022-10-12T07:57:06.604Z,79.98
2022-10-12T07:59:34.080Z,80.70
2022-10-12T08:02:01.544Z,80.19
2022-10-12T08:04:29.268Z,79.94
2022-10-12T08:06:58.270Z,79.03
2022-10-12T08:09:36.197Z,79.60
2022-10-12T08:12:04.820Z,78.95
2022-10-12T08:14:32.294Z,78.21
2022-10-12T08:16:59.717Z,78.36
2022-10-12T08:19:29.648Z,76.96
2022-10-12T08:21:59.330Z,72.15
2022-10-12T08:24:26.804Z,73.57
2022-10-12T08:26:56.885Z,74.14
2022-10-12T08:29:28.002Z,75.70
2022-10-12T08:31:55.429Z,73.11
2022-10-12T08:34:25.253Z,72.44
2022-10-12T08:36:52.985Z,73.23
2022-10-12T08:39:20.338Z,72.31
2022-10-12T08:45:01.147Z,71.40
2022-10-12T08:50:19.101Z,71.21
2022-10-12T08:52:56.113Z,70.87
2022-10-12T08:55:44.811Z,70.86
2022-10-12T08:58:20.907Z,70.41
2022-10-12T09:00:52.786Z,69.44
2022-10-12T09:14:25.650Z,67.32
2022-10-12T09:16:56.258Z,63.89
2022-10-12T09:19:36.128Z,66.72
2022-10-12T09:22:05.693Z,65.86
2022-10-12T09:24:36.804Z,67.62
2022-10-12T09:27:17.434Z,65.05
2022-10-12T09:29:49.569Z,67.11
2022-10-12T09:35:14.138Z,65.59
2022-10-12T09:37:42.094Z,65.32
2022-10-12T09:40:21.882Z,64.26
2022-10-12T09:42:50.626Z,64.06
2022-10-12T09:45:20.949Z,64.37
2022-10-12T09:50:52.800Z,63.14
2022-10-12T09:58:54.346Z,62.92
2022-10-12T10:04:24.347Z,60.69
2022-10-12T10:06:52.109Z,63.04
2022-10-12T10:12:22.932Z,60.51
2022-10-12T10:14:52.816Z,60.13
2022-10-12T10:17:26.548Z,60.17
2022-10-12T10:19:56.084Z,62.22
2022-10-12T10:22:24.781Z,62.10
2022-10-12T10:24:59.947Z,61.02
2022-10-12T10:27:37.375Z,59.82
2022-10-12T10:30:32.499Z,53.96
2022-10-12T10:33:20.260Z,57.00
2022-10-12T10:38:48.768Z,59.20
2022-10-12T10:41:18.468Z,58.25
2022-10-12T10:43:50.113Z,59.70
2022-10-12T10:46:26.371Z,60.11
2022-10-12T10:49:01.840Z,59.77
2022-10-12T10:57:10.799Z,58.97
2022-10-12T11:02:38.817Z,60.10
2022-10-12T11:05:14.484Z,59.49
2022-10-12T11:07:54.799Z,59.66
2022-10-12T11:10:48.733Z,59.14
2022-10-12T11:13:56.158Z,56.78
2022-10-12T11:19:26.790Z,57.33
2022-10-12T11:22:03.306Z,57.43
2022-10-12T11:24:43.632Z,57.79
2022-10-12T11:27:39.259Z,56.76
2022-10-12T11:30:14.972Z,57.54
2022-10-12T11:32:47.034Z,57.28
2022-10-12T11:35:24.985Z,58.23
2022-10-12T11:37:59.640Z,58.44
2022-10-12T11:40:48.100Z,58.57
2022-10-12T11:43:25.656Z,58.46
2022-10-12T11:45:57.074Z,57.75
2022-10-12T11:48:29.916Z,58.38
2022-10-12T11:51:03.901Z,56.55
2022-10-12T11:56:39.993Z,57.61
2022-10-12T11:59:20.065Z,58.72
2022-10-12T12:02:01.021Z,58.82
2022-10-12T12:07:45.611Z,58.94
2022-10-12T12:13:20.777Z,59.48
2022-10-12T12:18:30.369Z,60.64
2022-10-12T12:21:13.553Z,60.25
2022-10-12T12:23:43.908Z,58.08
2022-10-12T12:28:52.979Z,57.83
2022-10-12T12:31:28.307Z,58.26
2022-10-12T12:34:17.211Z,56.79
2022-10-12T12:36:48.090Z,58.74
2022-10-12T12:39:34.247Z,58.26
2022-10-12T12:42:04.039Z,58.39
2022-10-12T12:49:53.997Z,59.84
2022-10-12T12:52:29.461Z,59.73
2022-10-12T13:09:36.316Z,57.25
2022-10-12T13:20:22.088Z,57.29
2022-10-12T13:22:52.194Z,58.24
2022-10-12T13:28:11.001Z,58.92
2022-10-12T13:36:35.740Z,60.69
2022-10-12T13:39:21.720Z,59.04
2022-10-12T13:41:52.432Z,59.91
2022-10-12T13:44:34.865Z,61.02
2022-10-12T13:47:20.811Z,61.23
2022-10-12T13:49:48.570Z,61.88
2022-10-12T13:54:53.035Z,62.67
2022-10-12T14:02:58.680Z,63.98
2022-10-12T14:05:28.986Z,64.81
2022-10-12T14:08:03.642Z,65.13
2022-10-12T14:10:35.750Z,65.24
2022-10-12T14:13:05.786Z,66.13
2022-10-12T14:15:36.561Z,65.99
2022-10-12T14:18:04.743Z,66.53
2022-10-12T14:20:37.480Z,67.43
2022-10-12T14:23:25.256Z,67.96
2022-10-12T14:25:54.824Z,68.15
2022-10-12T14:28:38.226Z,68.92
2022-10-12T14:31:05.852Z,68.48
2022-10-12T14:33:33.441Z,69.19
2022-10-12T14:39:13.498Z,70.62
2022-10-12T14:41:51.135Z,69.92
2022-10-12T14:44:20.806Z,70.26
2022-10-12T14:49:45.297Z,71.63
2022-10-12T14:52:42.877Z,71.16
2022-10-12T14:55:16.131Z,71.73
2022-10-12T14:57:44.184Z,72.36
2022-10-12T15:00:23.640Z,72.67
2022-10-12T15:02:51.808Z,72.02
2022-10-12T15:05:21.837Z,72.56
2022-10-12T15:07:50.147Z,72.97
2022-10-12T15:10:20.920Z,73.47
2022-10-12T15:12:48.692Z,73.31
2022-10-12T15:15:29.402Z,73.58
2022-10-12T15:17:57.395Z,74.20
2022-10-12T15:20:26.243Z,74.78
2022-10-12T15:22:54.096Z,73.90
2022-10-12T15:25:33.022Z,74.26
2022-10-12T15:28:00.543Z,75.21
2022-10-12T15:30:28.146Z,75.48
2022-10-12T15:32:55.687Z,75.24
2022-10-12T15:35:26.261Z,76.42
2022-10-12T15:37:56.535Z,76.10
2022-10-12T15:40:25.130Z,75.66
2022-10-12T15:42:52.632Z,76.38
2022-10-12T15:45:38.896Z,76.56
2022-10-12T15:48:08.848Z,77.21
2022-10-12T15:50:41.212Z,77.07
2022-10-12T15:53:11.870Z,77.20
2022-10-12T15:55:39.516Z,77.86
2022-10-12T15:58:07.210Z,77.81
2022-10-12T16:00:35.191Z,76.71
2022-10-12T16:03:02.840Z,77.28
2022-10-12T16:05:33.970Z,76.94
2022-10-12T16:08:03.184Z,77.25
2022-10-12T16:10:35.362Z,77.09
2022-10-12T16:13:03.723Z,77.03
2022-10-12T16:15:33.661Z,77.21
2022-10-12T16:18:02.809Z,76.21
2022-10-12T16:20:32.613Z,76.72
2022-10-12T16:23:01.478Z,77.16
2022-10-12T16:25:29.275Z,77.37
2022-10-12T16:27:58.451Z,76.82
2022-10-12T16:30:27.439Z,76.92
2022-10-12T16:32:55.326Z,77.57
2022-10-12T16:35:23.556Z,77.19
2022-10-12T16:37:51.318Z,77.71
2022-10-12T16:40:19.277Z,77.96
2022-10-12T16:42:53.506Z,78.25
2022-10-12T16:45:22.382Z,78.23
2022-10-12T16:47:50.919Z,78.95
2022-10-12T16:50:26.019Z,78.97
2022-10-12T16:52:55.976Z,79.22
2022-10-12T16:55:23.673Z,79.64
2022-10-12T16:57:59.921Z,79.00
2022-10-12T17:00:28.073Z,79.90
2022-10-12T17:02:57.489Z,79.85
2022-10-12T17:05:25.272Z,80.39
2022-10-12T17:07:55.549Z,80.24
2022-10-12T17:10:23.062Z,80.06
2022-10-12T17:12:50.720Z,80.56
2022-10-12T17:15:18.500Z,80.26
2022-10-12T17:17:46.103Z,80.58
2022-10-12T17:20:13.765Z,80.52
2022-10-12T17:22:49.669Z,80.85
2022-10-12T17:25:21.725Z,80.10
2022-10-12T17:27:50.905Z,81.26
2022-10-12T17:30:24.783Z,80.52
2022-10-12T17:32:53.873Z,80.67
2022-10-12T17:35:21.439Z,80.71
2022-10-12T17:37:54.951Z,80.35
2022-10-12T17:40:25.212Z,80.71
2022-10-12T17:42:52.768Z,80.78
2022-10-12T17:45:20.438Z,80.37
2022-10-12T17:47:49.385Z,80.67
2022-10-12T17:50:17.074Z,80.84
2022-10-12T17:52:44.612Z,80.73
2022-10-12T17:55:29.574Z,80.98
2022-10-12T17:57:59.833Z,80.67
2022-10-12T18:00:27.851Z,80.49
2022-10-12T18:02:55.438Z,81.01
2022-10-12T18:05:23.011Z,80.92
2022-10-12T18:07:50.959Z,81.23
2022-10-12T18:10:18.951Z,80.88
2022-10-12T18:12:47.014Z,81.19
2022-10-12T18:15:14.618Z,80.94
2022-10-12T18:17:42.206Z,80.96
2022-10-12T18:20:10.358Z,81.38
2022-10-12T18:22:37.887Z,81.28
2022-10-12T18:25:05.872Z,81.45
2022-10-12T18:27:34.593Z,81.84
2022-10-12T18:30:02.303Z,82.02
2022-10-12T18:32:30.442Z,82.52
2022-10-12T18:34:58.890Z,82.53
2022-10-12T18:37:26.808Z,82.58
2022-10-12T18:39:54.722Z,82.07
2022-10-12T18:42:22.325Z,82.36
2022-10-12T18:44:49.952Z,82.02
2022-10-12T18:47:20.934Z,82.75
2022-10-12T18:49:51.889Z,82.64
2022-10-12T18:52:21.271Z,82.88
2022-10-12T18:54:51.099Z,83.36
2022-10-12T18:57:18.785Z,83.44
2022-10-12T18:59:46.399Z,83.03
2022-10-12T19:02:17.525Z,82.91
2022-10-12T19:04:45.166Z,82.63
2022-10-12T19:07:13.030Z,82.98
2022-10-12T19:09:40.547Z,83.15
2022-10-12T19:12:21.864Z,83.16
2022-10-12T19:14:50.411Z,83.56
2022-10-12T19:17:22.653Z,83.57
2022-10-12T19:19:51.643Z,83.65
2022-10-12T19:22:19.430Z,83.59
2022-10-12T19:24:48.411Z,83.52
2022-10-12T19:27:15.980Z,83.79
2022-10-12T19:29:45.781Z,83.82
2022-10-12T19:32:13.559Z,84.13
2022-10-12T19:34:41.079Z,84.64
2022-10-12T19:37:08.550Z,84.64
2022-10-12T19:39:36.710Z,85.00
2022-10-12T19:42:04.190Z,84.96
2022-10-12T19:44:31.705Z,84.85
2022-10-12T19:47:00.326Z,85.33
2022-10-12T19:49:27.975Z,85.24
2022-10-12T19:51:56.009Z,85.47
2022-10-12T19:54:23.774Z,84.79
2022-10-12T19:56:51.287Z,84.93
2022-10-12T19:59:18.817Z,84.72
2022-10-12T20:01:48.398Z,84.71
2022-10-12T20:04:16.454Z,84.96
2022-10-12T20:06:44.256Z,84.64
2022-10-12T20:09:11.865Z,84.51
2022-10-12T20:11:39.402Z,84.40
2022-10-12T20:14:07.988Z,84.64
2022-10-12T20:16:36.614Z,84.04
2022-10-12T20:19:07.210Z,84.26
2022-10-12T20:21:36.876Z,84.69
2022-10-12T20:24:05.211Z,84.66
2022-10-12T20:26:32.746Z,85.11
2022-10-12T20:29:01.290Z,84.76
2022-10-12T20:31:29.773Z,84.67
2022-10-12T20:33:58.548Z,84.25
2022-10-12T20:36:28.789Z,84.29
2022-10-12T20:38:58.149Z,84.81
2022-10-12T20:41:26.661Z,84.12
2022-10-12T20:43:56.709Z,84.08
2022-10-12T20:46:24.692Z,84.16
2022-10-12T20:48:57.361Z,83.92
2022-10-12T20:51:28.894Z,84.05
2022-10-12T20:53:59.586Z,83.88
2022-10-12T20:56:29.288Z,84.08
2022-10-12T20:58:57.015Z,83.95
2022-10-12T21:01:26.299Z,84.19
2022-10-12T21:03:54.812Z,85.24
2022-10-12T21:06:23.759Z,84.84
2022-10-12T21:08:54.201Z,85.07
2022-10-12T21:11:22.266Z,84.81
2022-10-12T21:13:50.396Z,84.81
2022-10-12T21:16:18.814Z,84.49
2022-10-12T21:18:46.198Z,84.84
2022-10-12T21:21:19.126Z,84.71
2022-10-12T21:23:55.851Z,85.25
2022-10-12T21:26:25.272Z,85.17
2022-10-12T21:28:53.021Z,85.18
2022-10-12T21:31:21.169Z,85.66
2022-10-12T21:33:48.674Z,86.12
2022-10-12T21:36:20.461Z,86.47
2022-10-12T21:38:48.136Z,86.85
2022-10-12T21:41:16.762Z,87.42
2022-10-12T21:43:44.482Z,87.00
2022-10-12T21:46:14.957Z,87.38
2022-10-12T21:48:43.034Z,87.55
2022-10-12T21:51:11.113Z,87.52
2022-10-12T21:53:40.295Z,87.56
2022-10-12T21:56:14.542Z,87.79
2022-10-12T21:58:42.143Z,87.36
2022-10-12T22:01:13.894Z,86.92
2022-10-12T22:03:41.910Z,88.03
2022-10-12T22:06:14.922Z,87.48
2022-10-12T22:08:43.493Z,87.51
2022-10-12T22:11:13.886Z,87.38
2022-10-12T22:13:41.351Z,87.23
2022-10-12T22:16:12.123Z,86.88
2022-10-12T22:18:40.277Z,86.78
2022-10-12T22:21:10.795Z,87.18
2022-10-12T22:23:38.413Z,86.98
2022-10-12T22:26:09.801Z,87.45
2022-10-12T22:28:37.447Z,88.03
2022-10-12T22:31:08.832Z,87.93
2022-10-12T22:33:37.621Z,88.73
2022-10-12T22:36:06.763Z,88.83
2022-10-12T22:38:35.309Z,88.84
2022-10-12T22:41:18.085Z,89.71
2022-10-12T22:43:48.397Z,91.01
2022-10-12T22:46:15.972Z,91.76
2022-10-12T22:48:43.453Z,91.12
2022-10-12T22:51:17.645Z,91.60
2022-10-12T22:53:45.305Z,91.11
2022-10-12T22:56:18.619Z,90.76
2022-10-12T22:58:48.630Z,91.44
2022-10-12T23:01:18.067Z,91.47
2022-10-12T23:03:46.295Z,91.93
2022-10-12T23:06:16.834Z,92.98
2022-10-12T23:08:44.892Z,92.01
2022-10-12T23:11:15.838Z,92.74
2022-10-12T23:13:44.171Z,93.00
2022-10-12T23:16:15.986Z,93.67
2022-10-12T23:18:43.440Z,93.31
2022-10-12T23:21:14.863Z,92.89
2022-10-12T23:23:43.544Z,92.77
2022-10-12T23:26:14.721Z,92.93
2022-10-12T23:28:42.938Z,93.39
2022-10-12T23:31:21.070Z,93.44
2022-10-12T23:33:57.508Z,93.49
2022-10-12T23:36:24.930Z,93.80
2022-10-12T23:38:52.406Z,93.79
2022-10-12T23:41:19.869Z,93.18
2022-10-12T23:43:47.659Z,93.31
2022-10-12T23:46:15.138Z,93.60
2022-10-12T23:48:42.649Z,93.76
2022-10-12T23:51:10.990Z,93.84
2022-10-12T23:53:39.026Z,93.45
2022-10-12T23:56:07.237Z,93.29
2022-10-12T23:58:35.103Z,93.54
